sensor_id;sensor_type;location;lat;lon;timestamp;pressure;altitude;pressure_sealevel;temperature;humidity
11017;BME280;54687;50.800;6.772;2023-05-21T00:02:02;59221.47;;;-144.06;21.86
11017;BME280;54687;50.800;6.772;2023-05-21T00:04:29;59185.88;;;-144.06;22.03
11017;BME280;54687;50.800;6.772;2023-05-21T00:06:56;59183.78;;;-144.06;22.15
11017;BME280;54687;50.800;6.772;2023-05-21T00:09:23;59223.56;;;-144.06;22.00
11017;BME280;54687;50.800;6.772;2023-05-21T00:11:49;59219.38;;;-144.06;22.23
11017;BME280;54687;50.800;6.772;2023-05-21T00:14:16;59196.34;;;-144.06;22.03
11017;BME280;54687;50.800;6.772;2023-05-21T00:16:44;59225.66;;;-144.06;22.18
11017;BME280;54687;50.800;6.772;2023-05-21T00:19:11;59217.28;;;-144.06;22.08
11017;BME280;54687;50.800;6.772;2023-05-21T00:21:38;59225.66;;;-144.06;22.08
11017;BME280;54687;50.800;6.772;2023-05-21T00:24:05;59219.38;;;-144.06;21.98
11017;BME280;54687;50.800;6.772;2023-05-21T00:26:32;59248.72;;;-144.06;22.18
11017;BME280;54687;50.800;6.772;2023-05-21T00:28:58;59221.47;;;-144.06;22.09
11017;BME280;54687;50.800;6.772;2023-05-21T00:31:25;59240.34;;;-144.06;22.12
11017;BME280;54687;50.800;6.772;2023-05-21T00:33:53;59231.97;;;-144.06;22.16
11017;BME280;54687;50.800;6.772;2023-05-21T00:36:20;59223.56;;;-144.06;22.24
11017;BME280;54687;50.800;6.772;2023-05-21T00:38:51;59236.16;;;-144.06;22.08
11017;BME280;54687;50.800;6.772;2023-05-21T00:41:18;59211.00;;;-144.06;22.15
11017;BME280;54687;50.800;6.772;2023-05-21T00:43:47;59240.34;;;-144.06;22.25
11017;BME280;54687;50.800;6.772;2023-05-21T00:46:16;59236.16;;;-144.06;22.41
11017;BME280;54687;50.800;6.772;2023-05-21T00:48:44;59242.44;;;-144.06;22.34
11017;BME280;54687;50.800;6.772;2023-05-21T00:51:12;59244.53;;;-144.06;22.23
11017;BME280;54687;50.800;6.772;2023-05-21T00:53:40;59252.91;;;-144.06;22.46
11017;BME280;54687;50.800;6.772;2023-05-21T00:56:07;59257.09;;;-144.06;22.50
11017;BME280;54687;50.800;6.772;2023-05-21T00:58:34;59292.72;;;-144.06;22.40
11017;BME280;54687;50.800;6.772;2023-05-21T01:01:02;59231.97;;;-144.06;22.31
11017;BME280;54687;50.800;6.772;2023-05-21T01:03:31;59261.28;;;-144.06;22.24
11017;BME280;54687;50.800;6.772;2023-05-21T01:06:03;59257.09;;;-144.06;22.31
11017;BME280;54687;50.800;6.772;2023-05-21T01:08:31;59248.72;;;-144.06;22.20
11017;BME280;54687;50.800;6.772;2023-05-21T01:11:00;59206.81;;;-144.06;22.28
11017;BME280;54687;50.800;6.772;2023-05-21T01:13:28;59261.28;;;-144.06;22.35
11017;BME280;54687;50.800;6.772;2023-05-21T01:15:55;59250.81;;;-144.06;22.40
11017;BME280;54687;50.800;6.772;2023-05-21T01:18:23;59269.66;;;-144.06;22.48
11017;BME280;54687;50.800;6.772;2023-05-21T01:20:51;59255.00;;;-144.06;22.46
11017;BME280;54687;50.800;6.772;2023-05-21T01:23:20;59273.84;;;-144.06;22.45
11017;BME280;54687;50.800;6.772;2023-05-21T01:25:47;59252.91;;;-144.06;22.40
11017;BME280;54687;50.800;6.772;2023-05-21T01:28:14;59252.91;;;-144.06;22.35
11017;BME280;54687;50.800;6.772;2023-05-21T01:30:40;59269.66;;;-144.06;22.25
11017;BME280;54687;50.800;6.772;2023-05-21T01:33:12;59236.16;;;-144.06;22.34
11017;BME280;54687;50.800;6.772;2023-05-21T01:35:43;59231.97;;;-144.06;22.14
11017;BME280;54687;50.800;6.772;2023-05-21T01:38:17;59215.19;;;-144.06;22.22
11017;BME280;54687;50.800;6.772;2023-05-21T01:40:51;59229.88;;;-144.06;22.25
11017;BME280;54687;50.800;6.772;2023-05-21T01:43:19;59223.56;;;-144.06;22.17
11017;BME280;54687;50.800;6.772;2023-05-21T01:45:46;59248.72;;;-144.06;22.16
11017;BME280;54687;50.800;6.772;2023-05-21T01:48:13;59225.66;;;-144.06;22.26
11017;BME280;54687;50.800;6.772;2023-05-21T01:50:42;59265.47;;;-144.06;22.24
11017;BME280;54687;50.800;6.772;2023-05-21T01:53:10;59238.25;;;-144.06;22.32
11017;BME280;54687;50.800;6.772;2023-05-21T01:55:37;59261.28;;;-144.06;22.26
11017;BME280;54687;50.800;6.772;2023-05-21T01:58:07;59294.81;;;-144.06;22.59
11017;BME280;54687;50.800;6.772;2023-05-21T02:00:35;59294.81;;;-144.06;22.58
11017;BME280;54687;50.800;6.772;2023-05-21T02:03:01;59280.16;;;-144.06;22.55
11017;BME280;54687;50.800;6.772;2023-05-21T02:05:28;59317.84;;;-144.06;22.62
11017;BME280;54687;50.800;6.772;2023-05-21T02:07:54;59303.19;;;-144.06;22.67
11017;BME280;54687;50.800;6.772;2023-05-21T02:10:21;59301.09;;;-144.06;22.74
11017;BME280;54687;50.800;6.772;2023-05-21T02:12:48;59288.53;;;-144.06;22.76
11017;BME280;54687;50.800;6.772;2023-05-21T02:15:16;59303.19;;;-144.06;22.68
11017;BME280;54687;50.800;6.772;2023-05-21T02:17:43;59286.44;;;-144.06;22.77
11017;BME280;54687;50.800;6.772;2023-05-21T02:20:11;59307.38;;;-144.06;22.67
11017;BME280;54687;50.800;6.772;2023-05-21T02:22:39;59305.28;;;-144.06;22.63
11017;BME280;54687;50.800;6.772;2023-05-21T02:25:07;59307.38;;;-144.06;22.75
11017;BME280;54687;50.800;6.772;2023-05-21T02:27:34;59305.28;;;-144.06;22.67
11017;BME280;54687;50.800;6.772;2023-05-21T02:30:02;59305.28;;;-144.06;22.57
11017;BME280;54687;50.800;6.772;2023-05-21T02:32:31;59269.66;;;-144.06;22.59
11017;BME280;54687;50.800;6.772;2023-05-21T02:34:58;59286.44;;;-144.06;22.62
11017;BME280;54687;50.800;6.772;2023-05-21T02:37:25;59278.06;;;-144.06;22.62
11017;BME280;54687;50.800;6.772;2023-05-21T02:39:53;59309.47;;;-144.06;22.81
11017;BME280;54687;50.800;6.772;2023-05-21T02:42:20;59322.03;;;-144.06;22.76
11017;BME280;54687;50.800;6.772;2023-05-21T02:44:47;59317.84;;;-144.06;22.70
11017;BME280;54687;50.800;6.772;2023-05-21T02:47:14;59324.16;;;-144.06;22.91
11017;BME280;54687;50.800;6.772;2023-05-21T02:49:42;59336.72;;;-144.06;22.84
11017;BME280;54687;50.800;6.772;2023-05-21T02:52:09;59324.16;;;-144.06;22.79
11017;BME280;54687;50.800;6.772;2023-05-21T02:54:35;59288.53;;;-144.06;22.74
11017;BME280;54687;50.800;6.772;2023-05-21T02:57:02;59311.56;;;-144.06;22.65
11017;BME280;54687;50.800;6.772;2023-05-21T02:59:29;59303.19;;;-144.06;22.64
11017;BME280;54687;50.800;6.772;2023-05-21T03:01:55;59334.63;;;-144.06;22.77
11017;BME280;54687;50.800;6.772;2023-05-21T03:04:22;59322.03;;;-144.06;22.78
11017;BME280;54687;50.800;6.772;2023-05-21T03:06:50;59322.03;;;-144.06;22.73
11017;BME280;54687;50.800;6.772;2023-05-21T03:09:19;59326.25;;;-144.06;22.78
11017;BME280;54687;50.800;6.772;2023-05-21T03:11:46;59332.53;;;-144.06;22.80
11017;BME280;54687;50.800;6.772;2023-05-21T03:14:12;59299.00;;;-144.06;22.96
11017;BME280;54687;50.800;6.772;2023-05-21T03:16:40;59307.38;;;-144.06;22.86
11017;BME280;54687;50.800;6.772;2023-05-21T03:19:08;59307.38;;;-144.06;22.80
11017;BME280;54687;50.800;6.772;2023-05-21T03:21:35;59319.94;;;-144.06;22.77
11017;BME280;54687;50.800;6.772;2023-05-21T03:24:03;59349.28;;;-144.06;22.82
11017;BME280;54687;50.800;6.772;2023-05-21T03:26:30;59332.53;;;-144.06;22.89
11017;BME280;54687;50.800;6.772;2023-05-21T03:28:58;59315.75;;;-144.06;22.70
11017;BME280;54687;50.800;6.772;2023-05-21T03:31:26;59311.56;;;-144.06;22.68
11017;BME280;54687;50.800;6.772;2023-05-21T03:33:52;59286.44;;;-144.06;22.73
11017;BME280;54687;50.800;6.772;2023-05-21T03:36:19;59307.38;;;-144.06;22.77
11017;BME280;54687;50.800;6.772;2023-05-21T03:38:46;59299.00;;;-144.06;22.57
11017;BME280;54687;50.800;6.772;2023-05-21T03:41:14;59299.00;;;-144.06;22.74
11017;BME280;54687;50.800;6.772;2023-05-21T03:43:41;59315.75;;;-144.06;22.62
11017;BME280;54687;50.800;6.772;2023-05-21T03:46:07;59294.81;;;-144.06;22.67
11017;BME280;54687;50.800;6.772;2023-05-21T03:48:34;59265.47;;;-144.06;22.55
11017;BME280;54687;50.800;6.772;2023-05-21T03:51:01;59252.91;;;-144.06;22.62
11017;BME280;54687;50.800;6.772;2023-05-21T03:53:28;59273.84;;;-144.06;22.46
11017;BME280;54687;50.800;6.772;2023-05-21T03:55:54;59307.38;;;-144.06;22.54
11017;BME280;54687;50.800;6.772;2023-05-21T03:58:22;59290.63;;;-144.06;22.64
11017;BME280;54687;50.800;6.772;2023-05-21T04:00:49;59292.72;;;-144.06;22.51
11017;BME280;54687;50.800;6.772;2023-05-21T04:03:16;59275.94;;;-144.06;22.61
11017;BME280;54687;50.800;6.772;2023-05-21T04:05:43;59303.19;;;-144.06;22.46
11017;BME280;54687;50.800;6.772;2023-05-21T04:08:10;59280.16;;;-144.06;22.67
11017;BME280;54687;50.800;6.772;2023-05-21T04:10:36;59284.34;;;-144.06;22.53
11017;BME280;54687;50.800;6.772;2023-05-21T04:13:03;59284.34;;;-144.06;22.47
11017;BME280;54687;50.800;6.772;2023-05-21T04:15:31;59278.06;;;-144.06;22.55
11017;BME280;54687;50.800;6.772;2023-05-21T04:17:59;59319.94;;;-144.06;22.59
11017;BME280;54687;50.800;6.772;2023-05-21T04:20:25;59257.09;;;-144.06;22.50
11017;BME280;54687;50.800;6.772;2023-05-21T04:22:53;59240.34;;;-144.06;22.50
11017;BME280;54687;50.800;6.772;2023-05-21T04:25:20;59273.84;;;-144.06;22.54
11017;BME280;54687;50.800;6.772;2023-05-21T04:27:47;59278.06;;;-144.06;22.45
11017;BME280;54687;50.800;6.772;2023-05-21T04:30:14;59288.53;;;-144.06;22.36
11017;BME280;54687;50.800;6.772;2023-05-21T04:32:42;59265.47;;;-144.06;22.44
11017;BME280;54687;50.800;6.772;2023-05-21T04:35:10;59236.16;;;-144.06;22.40
11017;BME280;54687;50.800;6.772;2023-05-21T04:37:36;59238.25;;;-144.06;22.25
11017;BME280;54687;50.800;6.772;2023-05-21T04:40:07;59238.25;;;-144.06;22.31
11017;BME280;54687;50.800;6.772;2023-05-21T04:42:34;59244.53;;;-144.06;22.50
11017;BME280;54687;50.800;6.772;2023-05-21T04:45:00;59227.75;;;-144.06;22.35
11017;BME280;54687;50.800;6.772;2023-05-21T04:47:27;59227.75;;;-144.06;22.37
11017;BME280;54687;50.800;6.772;2023-05-21T04:50:00;59240.34;;;-144.06;22.38
11017;BME280;54687;50.800;6.772;2023-05-21T04:52:28;59231.97;;;-144.06;22.36
11017;BME280;54687;50.800;6.772;2023-05-21T04:54:55;59250.81;;;-144.06;22.20
11017;BME280;54687;50.800;6.772;2023-05-21T04:57:22;59229.88;;;-144.06;22.26
11017;BME280;54687;50.800;6.772;2023-05-21T04:59:49;59244.53;;;-144.06;22.21
11017;BME280;54687;50.800;6.772;2023-05-21T05:02:17;59211.00;;;-144.06;22.20
11017;BME280;54687;50.800;6.772;2023-05-21T05:04:44;59217.28;;;-144.06;22.38
11017;BME280;54687;50.800;6.772;2023-05-21T05:07:12;59194.25;;;-144.06;22.29
11017;BME280;54687;50.800;6.772;2023-05-21T05:09:40;59206.81;;;-144.06;22.20
11017;BME280;54687;50.800;6.772;2023-05-21T05:12:06;59225.66;;;-144.06;22.13
11017;BME280;54687;50.800;6.772;2023-05-21T05:14:33;59183.78;;;-144.06;22.14
11017;BME280;54687;50.800;6.772;2023-05-21T05:17:00;59181.69;;;-144.06;22.22
11017;BME280;54687;50.800;6.772;2023-05-21T05:19:27;59267.56;;;-144.06;22.47
11017;BME280;54687;50.800;6.772;2023-05-21T05:21:53;59227.75;;;-144.06;22.42
11017;BME280;54687;50.800;6.772;2023-05-21T05:24:21;59225.66;;;-144.06;22.42
11017;BME280;54687;50.800;6.772;2023-05-21T05:26:48;59217.28;;;-144.06;22.50
11017;BME280;54687;50.800;6.772;2023-05-21T05:29:15;59208.91;;;-144.06;22.38
11017;BME280;54687;50.800;6.772;2023-05-21T05:31:41;59217.28;;;-144.06;22.23
11017;BME280;54687;50.800;6.772;2023-05-21T05:34:08;59215.19;;;-144.06;22.48
11017;BME280;54687;50.800;6.772;2023-05-21T05:36:34;59221.47;;;-144.06;22.12
11017;BME280;54687;50.800;6.772;2023-05-21T05:39:01;59231.97;;;-144.06;22.41
11017;BME280;54687;50.800;6.772;2023-05-21T05:41:29;59194.25;;;-144.06;22.23
11017;BME280;54687;50.800;6.772;2023-05-21T05:43:55;59202.63;;;-144.06;22.13
11017;BME280;54687;50.800;6.772;2023-05-21T05:46:23;59181.69;;;-144.06;22.27
11017;BME280;54687;50.800;6.772;2023-05-21T05:48:49;59185.88;;;-144.06;22.25
11017;BME280;54687;50.800;6.772;2023-05-21T05:51:16;59213.09;;;-144.06;22.35
11017;BME280;54687;50.800;6.772;2023-05-21T05:53:43;59215.19;;;-144.06;22.42
11017;BME280;54687;50.800;6.772;2023-05-21T05:56:09;59240.34;;;-144.06;22.51
11017;BME280;54687;50.800;6.772;2023-05-21T05:58:37;59236.16;;;-144.06;22.57
11017;BME280;54687;50.800;6.772;2023-05-21T06:01:03;59196.34;;;-144.06;22.56
11017;BME280;54687;50.800;6.772;2023-05-21T06:03:30;59250.81;;;-144.06;22.72
11017;BME280;54687;50.800;6.772;2023-05-21T06:05:57;59229.88;;;-144.06;22.58
11017;BME280;54687;50.800;6.772;2023-05-21T06:08:24;59221.47;;;-144.06;22.70
11017;BME280;54687;50.800;6.772;2023-05-21T06:10:51;59248.72;;;-144.06;22.65
11017;BME280;54687;50.800;6.772;2023-05-21T06:13:17;59261.28;;;-144.06;22.88
11017;BME280;54687;50.800;6.772;2023-05-21T06:15:45;59198.44;;;-144.06;22.52
11017;BME280;54687;50.800;6.772;2023-05-21T06:18:12;59190.06;;;-144.06;22.45
11017;BME280;54687;50.800;6.772;2023-05-21T06:20:38;59160.72;;;-144.06;22.38
11017;BME280;54687;50.800;6.772;2023-05-21T06:23:05;59135.59;;;-144.06;22.24
11017;BME280;54687;50.800;6.772;2023-05-21T06:25:33;59152.34;;;-144.06;22.25
11017;BME280;54687;50.800;6.772;2023-05-21T06:27:59;59097.88;;;-144.06;22.08
11017;BME280;54687;50.800;6.772;2023-05-21T06:30:26;59089.50;;;-144.06;22.10
11017;BME280;54687;50.800;6.772;2023-05-21T06:32:54;59081.13;;;-144.06;21.75
11017;BME280;54687;50.800;6.772;2023-05-21T06:35:21;59020.34;;;-144.06;21.83
11017;BME280;54687;50.800;6.772;2023-05-21T06:37:48;59022.47;;;-144.06;21.42
11017;BME280;54687;50.800;6.772;2023-05-21T06:40:15;59018.25;;;-144.06;21.29
11017;BME280;54687;50.800;6.772;2023-05-21T06:42:41;58967.97;;;-144.06;21.40
11017;BME280;54687;50.800;6.772;2023-05-21T06:45:08;58988.94;;;-144.06;21.27
11017;BME280;54687;50.800;6.772;2023-05-21T06:47:35;59026.66;;;-144.06;21.32
11017;BME280;54687;50.800;6.772;2023-05-21T06:50:04;58997.31;;;-144.06;21.44
11017;BME280;54687;50.800;6.772;2023-05-21T06:52:30;59009.88;;;-144.06;21.29
11017;BME280;54687;50.800;6.772;2023-05-21T06:54:57;58957.50;;;-144.06;21.19
11017;BME280;54687;50.800;6.772;2023-05-21T06:57:24;58926.09;;;-144.06;21.15
11017;BME280;54687;50.800;6.772;2023-05-21T06:59:50;58894.66;;;-144.06;20.90
11017;BME280;54687;50.800;6.772;2023-05-21T07:02:17;58842.28;;;-144.06;20.74
11017;BME280;54687;50.800;6.772;2023-05-21T07:04:44;58888.38;;;-144.06;20.89
11017;BME280;54687;50.800;6.772;2023-05-21T07:07:12;58863.25;;;-144.06;20.81
11017;BME280;54687;50.800;6.772;2023-05-21T07:09:39;58844.38;;;-144.06;20.79
11017;BME280;54687;50.800;6.772;2023-05-21T07:12:06;58825.53;;;-144.06;20.85
11017;BME280;54687;50.800;6.772;2023-05-21T07:14:33;58804.59;;;-144.06;20.56
11017;BME280;54687;50.800;6.772;2023-05-21T07:17:00;58875.81;;;-144.06;20.69
11017;BME280;54687;50.800;6.772;2023-05-21T07:19:26;58949.13;;;-144.06;20.94
11017;BME280;54687;50.800;6.772;2023-05-21T07:21:53;58917.72;;;-144.06;21.07
11017;BME280;54687;50.800;6.772;2023-05-21T07:24:22;58930.28;;;-144.06;21.09
11017;BME280;54687;50.800;6.772;2023-05-21T07:26:48;58980.56;;;-144.06;21.19
11017;BME280;54687;50.800;6.772;2023-05-21T07:29:15;59039.22;;;-144.06;21.32
11017;BME280;54687;50.800;6.772;2023-05-21T07:31:42;59072.72;;;-144.06;21.70
11017;BME280;54687;50.800;6.772;2023-05-21T07:34:09;59064.34;;;-144.06;21.79
11017;BME280;54687;50.800;6.772;2023-05-21T07:36:35;59068.53;;;-144.06;21.74
11017;BME280;54687;50.800;6.772;2023-05-21T07:39:02;59026.66;;;-144.06;21.74
11017;BME280;54687;50.800;6.772;2023-05-21T07:41:30;59058.06;;;-144.06;21.64
11017;BME280;54687;50.800;6.772;2023-05-21T07:43:57;59097.88;;;-144.06;21.59
11017;BME280;54687;50.800;6.772;2023-05-21T07:46:25;59120.91;;;-144.06;22.07
11017;BME280;54687;50.800;6.772;2023-05-21T07:48:52;59127.19;;;-144.06;22.18
11017;BME280;54687;50.800;6.772;2023-05-21T07:51:18;59131.41;;;-144.06;22.35
11017;BME280;54687;50.800;6.772;2023-05-21T07:53:45;59150.25;;;-144.06;22.22
11017;BME280;54687;50.800;6.772;2023-05-21T07:56:12;59120.91;;;-144.06;22.18
11017;BME280;54687;50.800;6.772;2023-05-21T07:58:40;59139.78;;;-144.06;22.21
11017;BME280;54687;50.800;6.772;2023-05-21T08:01:10;59164.91;;;-144.06;21.96
11017;BME280;54687;50.800;6.772;2023-05-21T08:03:37;59127.19;;;-144.06;22.25
11017;BME280;54687;50.800;6.772;2023-05-21T08:06:03;59116.72;;;-144.06;22.00
11017;BME280;54687;50.800;6.772;2023-05-21T08:08:30;59060.16;;;-144.06;21.74
11017;BME280;54687;50.800;6.772;2023-05-21T08:10:56;59014.06;;;-144.06;21.65
11017;BME280;54687;50.800;6.772;2023-05-21T08:13:23;59005.69;;;-144.06;21.51
11017;BME280;54687;50.800;6.772;2023-05-21T08:15:52;58997.31;;;-144.06;21.43
11017;BME280;54687;50.800;6.772;2023-05-21T08:18:19;58988.94;;;-144.06;21.62
11017;BME280;54687;50.800;6.772;2023-05-21T08:20:47;59024.53;;;-144.06;21.66
11017;BME280;54687;50.800;6.772;2023-05-21T08:23:14;59049.69;;;-144.06;21.35
11017;BME280;54687;50.800;6.772;2023-05-21T08:25:42;59022.47;;;-144.06;21.62
11017;BME280;54687;50.800;6.772;2023-05-21T08:28:08;59039.22;;;-144.06;21.66
11017;BME280;54687;50.800;6.772;2023-05-21T08:30:35;59072.72;;;-144.06;21.70
11017;BME280;54687;50.800;6.772;2023-05-21T08:33:03;58997.31;;;-144.06;21.54
11017;BME280;54687;50.800;6.772;2023-05-21T08:35:29;59009.88;;;-144.06;21.67
11017;BME280;54687;50.800;6.772;2023-05-21T08:37:56;58993.13;;;-144.06;21.66
11017;BME280;54687;50.800;6.772;2023-05-21T08:40:23;58938.66;;;-144.06;21.45
11017;BME280;54687;50.800;6.772;2023-05-21T08:42:50;58984.75;;;-144.06;21.47
11017;BME280;54687;50.800;6.772;2023-05-21T08:45:20;59003.59;;;-144.06;21.56
11017;BME280;54687;50.800;6.772;2023-05-21T08:47:47;58980.56;;;-144.06;21.37
11017;BME280;54687;50.800;6.772;2023-05-21T08:50:18;58984.75;;;-144.06;21.39
11017;BME280;54687;50.800;6.772;2023-05-21T08:52:46;58934.47;;;-144.06;21.30
11017;BME280;54687;50.800;6.772;2023-05-21T08:55:14;58913.53;;;-144.06;21.50
11017;BME280;54687;50.800;6.772;2023-05-21T08:57:43;58926.09;;;-144.06;21.28
11017;BME280;54687;50.800;6.772;2023-05-21T09:00:10;58911.41;;;-144.06;21.20
11017;BME280;54687;50.800;6.772;2023-05-21T09:02:38;58886.28;;;-144.06;21.18
11017;BME280;54687;50.800;6.772;2023-05-21T09:05:09;58871.63;;;-144.06;21.16
11017;BME280;54687;50.800;6.772;2023-05-21T09:07:42;58842.28;;;-144.06;20.93
11017;BME280;54687;50.800;6.772;2023-05-21T09:10:12;58852.75;;;-144.06;20.74
11017;BME280;54687;50.800;6.772;2023-05-21T09:12:39;58838.09;;;-144.06;21.09
11017;BME280;54687;50.800;6.772;2023-05-21T09:15:06;58863.25;;;-144.06;21.05
11017;BME280;54687;50.800;6.772;2023-05-21T09:17:33;58900.94;;;-144.06;21.20
11017;BME280;54687;50.800;6.772;2023-05-21T09:20:04;58928.19;;;-144.06;21.32
11017;BME280;54687;50.800;6.772;2023-05-21T09:22:34;58850.66;;;-144.06;20.97
11017;BME280;54687;50.800;6.772;2023-05-21T09:25:05;58846.47;;;-144.06;21.08
11017;BME280;54687;50.800;6.772;2023-05-21T09:27:33;58831.81;;;-144.06;20.84
11017;BME280;54687;50.800;6.772;2023-05-21T09:30:02;58833.91;;;-144.06;20.91
11017;BME280;54687;50.800;6.772;2023-05-21T09:32:30;58800.41;;;-144.06;20.88
11017;BME280;54687;50.800;6.772;2023-05-21T09:34:56;58808.78;;;-144.06;20.68
11017;BME280;54687;50.800;6.772;2023-05-21T09:37:23;58750.13;;;-144.06;20.58
11017;BME280;54687;50.800;6.772;2023-05-21T09:39:51;58796.22;;;-144.06;20.85
11017;BME280;54687;50.800;6.772;2023-05-21T09:42:20;58771.06;;;-144.06;20.83
11017;BME280;54687;50.800;6.772;2023-05-21T09:44:47;58766.88;;;-144.06;20.63
11017;BME280;54687;50.800;6.772;2023-05-21T09:47:18;58794.09;;;-144.06;20.93
11017;BME280;54687;50.800;6.772;2023-05-21T09:49:46;58792.00;;;-144.06;20.78
11017;BME280;54687;50.800;6.772;2023-05-21T09:52:12;58779.44;;;-144.06;20.78
11017;BME280;54687;50.800;6.772;2023-05-21T09:54:39;58821.34;;;-144.06;20.73
11017;BME280;54687;50.800;6.772;2023-05-21T09:57:06;58840.19;;;-144.06;21.24
11017;BME280;54687;50.800;6.772;2023-05-21T09:59:37;58819.25;;;-144.06;20.91
11017;BME280;54687;50.800;6.772;2023-05-21T10:02:14;58796.22;;;-144.06;20.97
11017;BME280;54687;50.800;6.772;2023-05-21T10:04:43;58808.78;;;-144.06;21.08
11017;BME280;54687;50.800;6.772;2023-05-21T10:07:10;58792.00;;;-144.06;21.13
11017;BME280;54687;50.800;6.772;2023-05-21T10:09:37;58842.28;;;-144.06;21.32
11017;BME280;54687;50.800;6.772;2023-05-21T10:12:05;58846.47;;;-144.06;21.26
11017;BME280;54687;50.800;6.772;2023-05-21T10:14:32;58909.31;;;-144.06;21.31
11017;BME280;54687;50.800;6.772;2023-05-21T10:17:02;58846.47;;;-144.06;21.09
11017;BME280;54687;50.800;6.772;2023-05-21T10:19:31;58859.06;;;-144.06;21.51
11017;BME280;54687;50.800;6.772;2023-05-21T10:22:00;58838.09;;;-144.06;21.12
11017;BME280;54687;50.800;6.772;2023-05-21T10:24:29;58838.09;;;-144.06;20.98
11017;BME280;54687;50.800;6.772;2023-05-21T10:26:56;58934.47;;;-144.06;21.71
11017;BME280;54687;50.800;6.772;2023-05-21T10:29:24;58894.66;;;-144.06;21.37
11017;BME280;54687;50.800;6.772;2023-05-21T10:31:51;58863.25;;;-144.06;21.21
11017;BME280;54687;50.800;6.772;2023-05-21T10:34:20;58875.81;;;-144.06;21.42
11017;BME280;54687;50.800;6.772;2023-05-21T10:36:48;58863.25;;;-144.06;21.28
11017;BME280;54687;50.800;6.772;2023-05-21T10:39:17;58808.78;;;-144.06;21.23
11017;BME280;54687;50.800;6.772;2023-05-21T10:41:50;58810.88;;;-144.06;20.96
11017;BME280;54687;50.800;6.772;2023-05-21T10:44:28;58819.25;;;-144.06;21.27
11017;BME280;54687;50.800;6.772;2023-05-21T10:50:07;58762.69;;;-144.06;21.12
11017;BME280;54687;50.800;6.772;2023-05-21T10:52:51;58781.53;;;-144.06;21.03
11017;BME280;54687;50.800;6.772;2023-05-21T10:55:30;58733.34;;;-144.06;20.78
11017;BME280;54687;50.800;6.772;2023-05-21T10:58:22;58733.34;;;-144.06;20.77
11017;BME280;54687;50.800;6.772;2023-05-21T11:00:54;58708.22;;;-144.06;20.62
11017;BME280;54687;50.800;6.772;2023-05-21T11:03:21;58678.91;;;-144.06;20.45
11017;BME280;54687;50.800;6.772;2023-05-21T11:05:54;58687.28;;;-144.06;20.61
11017;BME280;54687;50.800;6.772;2023-05-21T11:08:21;58733.34;;;-144.06;20.56
11017;BME280;54687;50.800;6.772;2023-05-21T11:10:52;58691.47;;;-144.06;20.52
11017;BME280;54687;50.800;6.772;2023-05-21T11:13:20;58708.22;;;-144.06;20.42
11017;BME280;54687;50.800;6.772;2023-05-21T11:16:06;58787.81;;;-144.06;20.82
11017;BME280;54687;50.800;6.772;2023-05-21T11:18:57;58758.50;;;-144.06;20.88
11017;BME280;54687;50.800;6.772;2023-05-21T11:21:28;58699.84;;;-144.06;20.83
11017;BME280;54687;50.800;6.772;2023-05-21T11:23:58;58764.78;;;-144.06;20.75
11017;BME280;54687;50.800;6.772;2023-05-21T11:26:28;58739.66;;;-144.06;20.74
11017;BME280;54687;50.800;6.772;2023-05-21T11:29:07;58716.59;;;-144.06;20.53
11017;BME280;54687;50.800;6.772;2023-05-21T11:31:35;58773.16;;;-144.06;20.92
11017;BME280;54687;50.800;6.772;2023-05-21T11:34:10;58764.78;;;-144.06;20.98
11017;BME280;54687;50.800;6.772;2023-05-21T11:36:39;58812.97;;;-144.06;21.12
11017;BME280;54687;50.800;6.772;2023-05-21T11:39:10;58775.25;;;-144.06;21.05
11017;BME280;54687;50.800;6.772;2023-05-21T11:41:50;58745.94;;;-144.06;20.75
11017;BME280;54687;50.800;6.772;2023-05-21T11:44:18;58758.50;;;-144.06;20.73
11017;BME280;54687;50.800;6.772;2023-05-21T11:46:47;58758.50;;;-144.06;20.88
11017;BME280;54687;50.800;6.772;2023-05-21T11:49:14;58724.97;;;-144.06;20.98
11017;BME280;54687;50.800;6.772;2023-05-21T11:51:42;58741.75;;;-144.06;20.89
11017;BME280;54687;50.800;6.772;2023-05-21T11:54:09;58737.56;;;-144.06;20.84
11017;BME280;54687;50.800;6.772;2023-05-21T11:56:37;58708.22;;;-144.06;20.84
11017;BME280;54687;50.800;6.772;2023-05-21T11:59:13;58737.56;;;-144.06;21.15
11017;BME280;54687;50.800;6.772;2023-05-21T12:01:41;58781.53;;;-144.06;21.25
11017;BME280;54687;50.800;6.772;2023-05-21T12:04:08;58754.31;;;-144.06;20.97
11017;BME280;54687;50.800;6.772;2023-05-21T12:06:36;58724.97;;;-144.06;20.96
11017;BME280;54687;50.800;6.772;2023-05-21T12:09:08;58829.72;;;-144.06;21.07
11017;BME280;54687;50.800;6.772;2023-05-21T12:11:37;58808.78;;;-144.06;21.05
11017;BME280;54687;50.800;6.772;2023-05-21T12:14:06;58789.91;;;-144.06;21.17
11017;BME280;54687;50.800;6.772;2023-05-21T12:16:34;58775.25;;;-144.06;21.05
11017;BME280;54687;50.800;6.772;2023-05-21T12:19:01;58812.97;;;-144.06;21.17
11017;BME280;54687;50.800;6.772;2023-05-21T12:21:28;58779.44;;;-144.06;21.20
11017;BME280;54687;50.800;6.772;2023-05-21T12:23:54;58727.06;;;-144.06;20.93
11017;BME280;54687;50.800;6.772;2023-05-21T12:26:23;58768.97;;;-144.06;20.90
11017;BME280;54687;50.800;6.772;2023-05-21T12:28:50;58704.03;;;-144.06;20.78
11017;BME280;54687;50.800;6.772;2023-05-21T12:31:18;58683.09;;;-144.06;20.88
11017;BME280;54687;50.800;6.772;2023-05-21T12:33:47;58670.53;;;-144.06;20.64
11017;BME280;54687;50.800;6.772;2023-05-21T12:36:20;58632.81;;;-144.06;20.31
11017;BME280;54687;50.800;6.772;2023-05-21T12:38:47;58540.66;;;-144.06;20.02
11017;BME280;54687;50.800;6.772;2023-05-21T12:41:15;58488.28;;;-144.06;19.80
11017;BME280;54687;50.800;6.772;2023-05-21T12:43:43;58515.50;;;-144.06;19.89
11017;BME280;54687;50.800;6.772;2023-05-21T12:46:10;58515.50;;;-144.06;20.17
11017;BME280;54687;50.800;6.772;2023-05-21T12:48:39;58565.78;;;-144.06;20.31